createdAt,value
2023-05-09T00:01:33.926Z,17.70
2023-05-09T00:04:01.484Z,17.70
2023-05-09T00:06:28.806Z,17.70
2023-05-09T00:08:56.268Z,17.70
2023-05-09T00:11:23.426Z,17.70
2023-05-09T00:13:53.766Z,17.70
2023-05-09T00:16:24.171Z,17.70
2023-05-09T00:18:51.600Z,17.70
2023-05-09T00:21:18.682Z,17.70
2023-05-09T00:23:47.929Z,17.70
2023-05-09T00:26:15.864Z,17.70
2023-05-09T00:28:44.336Z,17.70
2023-05-09T00:31:11.501Z,17.70
2023-05-09T00:33:38.600Z,17.70
2023-05-09T00:36:06.087Z,17.70
2023-05-09T00:38:33.268Z,17.70
2023-05-09T00:41:00.505Z,17.70
2023-05-09T00:43:27.675Z,17.70
2023-05-09T00:45:54.935Z,17.70
2023-05-09T00:48:22.750Z,17.70
2023-05-09T00:50:53.076Z,17.70
2023-05-09T00:53:21.194Z,17.70
2023-05-09T00:55:48.646Z,17.70
2023-05-09T00:58:16.067Z,17.70
2023-05-09T01:00:43.592Z,17.70
2023-05-09T01:03:11.399Z,17.70
2023-05-09T01:05:56.654Z,17.70
2023-05-09T01:08:36.759Z,17.70
2023-05-09T01:11:37.309Z,17.70
2023-05-09T01:14:33.844Z,17.70
2023-05-09T01:17:29.996Z,17.70
2023-05-09T01:20:14.064Z,17.70
2023-05-09T01:22:48.449Z,17.70
2023-05-09T01:26:08.519Z,17.70
2023-05-09T01:28:52.889Z,17.70
2023-05-09T01:31:20.727Z,17.70
2023-05-09T01:33:54.365Z,17.70
2023-05-09T01:36:22.794Z,17.70
2023-05-09T01:38:52.772Z,17.70
2023-05-09T01:41:23.383Z,17.70
2023-05-09T01:43:52.292Z,17.70
2023-05-09T01:46:21.974Z,17.70
2023-05-09T01:48:50.853Z,17.70
2023-05-09T01:51:20.652Z,17.70
2023-05-09T01:53:50.036Z,17.70
2023-05-09T01:56:18.945Z,17.70
2023-05-09T01:58:50.951Z,17.70
2023-05-09T02:01:19.280Z,17.70
2023-05-09T02:03:50.816Z,17.70
2023-05-09T02:06:20.931Z,17.70
2023-05-09T02:08:49.731Z,17.70
2023-05-09T02:11:17.019Z,17.70
2023-05-09T02:13:44.153Z,17.70
2023-05-09T02:16:12.321Z,17.70
2023-05-09T02:18:39.738Z,17.70
2023-05-09T02:21:06.968Z,17.80
2023-05-09T02:23:34.801Z,17.80
2023-05-09T02:26:02.445Z,17.80
2023-05-09T02:28:30.507Z,17.80
2023-05-09T02:31:00.453Z,17.80
2023-05-09T02:33:28.407Z,17.80
2023-05-09T02:35:56.642Z,17.80
2023-05-09T02:38:24.243Z,17.80
2023-05-09T02:40:52.711Z,17.80
2023-05-09T02:43:20.061Z,17.70
2023-05-09T02:45:47.165Z,17.70
2023-05-09T02:48:14.491Z,17.70
2023-05-09T02:50:43.474Z,17.70
2023-05-09T02:53:10.944Z,17.70
2023-05-09T02:55:40.312Z,17.70
2023-05-09T02:58:14.255Z,17.70
2023-05-09T03:00:43.410Z,17.70
2023-05-09T03:03:12.277Z,17.70
2023-05-09T03:05:39.495Z,17.70
2023-05-09T03:08:06.732Z,17.70
2023-05-09T03:10:35.006Z,17.70
2023-05-09T03:13:03.036Z,17.70
2023-05-09T03:15:30.263Z,17.70
2023-05-09T03:17:59.922Z,17.70
2023-05-09T03:20:27.870Z,17.70
2023-05-09T03:22:55.378Z,17.70
2023-05-09T03:25:22.668Z,17.70
2023-05-09T03:27:49.763Z,17.70
2023-05-09T03:30:17.330Z,17.70
2023-05-09T03:32:46.980Z,17.70
2023-05-09T03:35:14.649Z,17.70
2023-05-09T03:37:42.006Z,17.60
2023-05-09T03:40:10.171Z,17.60
2023-05-09T03:42:44.864Z,17.60
2023-05-09T03:45:12.667Z,17.60
2023-05-09T03:47:40.874Z,17.60
2023-05-09T03:50:08.778Z,17.60
2023-05-09T03:52:39.282Z,17.60
2023-05-09T03:55:07.522Z,17.60
2023-05-09T03:57:36.640Z,17.60
2023-05-09T04:00:06.438Z,17.60
2023-05-09T04:02:41.720Z,17.60
2023-05-09T04:05:13.689Z,17.60
2023-05-09T04:07:41.750Z,17.50
2023-05-09T04:10:09.821Z,17.60
2023-05-09T04:12:37.098Z,17.60
2023-05-09T04:15:06.756Z,17.60
2023-05-09T04:17:34.991Z,17.60
2023-05-09T04:20:02.483Z,17.60
2023-05-09T04:22:29.630Z,17.60
2023-05-09T04:24:57.440Z,17.60
2023-05-09T04:27:25.100Z,17.60
2023-05-09T04:29:53.855Z,17.50
2023-05-09T04:32:23.390Z,17.50
2023-05-09T04:34:51.061Z,17.50
2023-05-09T04:37:23.158Z,17.50
2023-05-09T04:39:50.664Z,17.50
2023-05-09T04:42:24.414Z,17.50
2023-05-09T04:44:51.958Z,17.50
2023-05-09T04:47:20.752Z,17.50
2023-05-09T04:49:48.014Z,17.50
2023-05-09T04:52:15.224Z,17.50
2023-05-09T04:54:43.682Z,17.50
2023-05-09T04:57:17.877Z,17.50
2023-05-09T04:59:49.787Z,17.50
2023-05-09T05:02:17.182Z,17.50
2023-05-09T05:04:45.099Z,17.60
2023-05-09T05:07:12.799Z,17.60
2023-05-09T05:09:40.038Z,17.60
2023-05-09T05:12:09.744Z,17.70
2023-05-09T05:14:38.289Z,17.70
2023-05-09T05:17:08.548Z,17.70
2023-05-09T05:19:36.261Z,17.80
2023-05-09T05:22:05.463Z,17.80
2023-05-09T05:24:33.764Z,17.80
2023-05-09T05:27:01.841Z,17.90
2023-05-09T05:29:29.862Z,17.90
2023-05-09T05:31:57.080Z,17.90
2023-05-09T05:34:24.375Z,18.00
2023-05-09T05:36:52.008Z,18.00
2023-05-09T05:39:19.375Z,18.10
2023-05-09T05:41:46.538Z,18.10
2023-05-09T05:44:13.773Z,18.10
2023-05-09T05:46:41.562Z,18.20
2023-05-09T05:49:08.813Z,18.20
2023-05-09T05:51:36.072Z,18.20
2023-05-09T05:54:05.074Z,18.30
2023-05-09T05:56:33.492Z,18.30
2023-05-09T05:59:01.001Z,18.30
2023-05-09T06:01:28.422Z,18.40
2023-05-09T06:03:56.260Z,18.40
2023-05-09T06:06:29.905Z,18.40
2023-05-09T06:08:57.702Z,18.40
2023-05-09T06:11:28.362Z,18.40
2023-05-09T06:13:57.658Z,18.50
2023-05-09T06:16:25.253Z,18.50
2023-05-09T06:18:55.785Z,18.50
2023-05-09T06:21:23.912Z,18.50
2023-05-09T06:24:07.693Z,18.50
2023-05-09T06:26:37.537Z,18.50
2023-05-09T06:29:08.272Z,18.50
2023-05-09T06:31:39.746Z,18.60
2023-05-09T06:34:09.347Z,18.60
2023-05-09T06:36:36.852Z,18.60
2023-05-09T06:39:04.488Z,18.60
2023-05-09T06:41:32.482Z,18.60
2023-05-09T06:43:59.860Z,18.70
2023-05-09T06:46:27.037Z,18.70
2023-05-09T06:48:54.428Z,18.70
2023-05-09T06:51:21.548Z,18.70
2023-05-09T06:53:48.817Z,18.80
2023-05-09T06:56:18.400Z,18.80
2023-05-09T06:58:47.328Z,18.90
2023-05-09T07:01:14.483Z,18.90
2023-05-09T07:03:41.573Z,18.90
2023-05-09T07:06:08.821Z,19.00
2023-05-09T07:08:36.115Z,19.00
2023-05-09T07:11:03.284Z,19.10
2023-05-09T07:13:30.409Z,19.10
2023-05-09T07:15:57.905Z,19.10
2023-05-09T07:18:25.244Z,19.10
2023-05-09T07:20:52.315Z,19.20
2023-05-09T07:23:19.624Z,19.20
2023-05-09T07:25:49.658Z,19.20
2023-05-09T07:28:16.893Z,19.20
2023-05-09T07:30:44.081Z,19.20
2023-05-09T07:33:11.337Z,19.20
2023-05-09T07:35:38.615Z,19.30
2023-05-09T07:38:06.550Z,19.30
2023-05-09T07:40:36.807Z,19.30
2023-05-09T07:43:03.986Z,19.30
2023-05-09T07:45:31.192Z,19.30
2023-05-09T07:47:58.473Z,19.30
2023-05-09T07:50:26.258Z,19.30
2023-05-09T07:52:53.610Z,19.30
2023-05-09T07:55:20.739Z,19.40
2023-05-09T07:57:47.883Z,19.40
2023-05-09T08:00:15.453Z,19.40
2023-05-09T08:02:42.707Z,19.40
2023-05-09T08:05:11.846Z,19.40
2023-05-09T08:07:39.454Z,19.50
2023-05-09T08:10:07.314Z,19.50
2023-05-09T08:12:34.510Z,19.60
2023-05-09T08:15:05.229Z,19.60
2023-05-09T08:17:33.418Z,19.60
2023-05-09T08:20:00.772Z,19.70
2023-05-09T08:22:27.881Z,19.60
2023-05-09T08:24:55.030Z,19.70
2023-05-09T08:27:22.232Z,19.70
2023-05-09T08:29:49.373Z,19.70
2023-05-09T08:32:16.551Z,19.70
2023-05-09T08:34:43.711Z,19.70
2023-05-09T08:37:12.292Z,19.80
2023-05-09T08:39:41.755Z,19.80
2023-05-09T08:42:10.169Z,19.80
2023-05-09T08:44:37.437Z,19.80
2023-05-09T08:47:05.505Z,19.80
2023-05-09T08:49:33.561Z,19.80
2023-05-09T08:52:01.611Z,19.90
2023-05-09T08:54:30.182Z,19.90
2023-05-09T08:56:57.903Z,19.90
2023-05-09T08:59:26.604Z,19.90
2023-05-09T09:01:54.946Z,19.90
2023-05-09T09:04:23.189Z,19.90
2023-05-09T09:06:51.944Z,19.90
2023-05-09T09:09:20.547Z,19.90
2023-05-09T09:11:48.235Z,19.90
2023-05-09T09:14:25.607Z,19.90
2023-05-09T09:16:54.657Z,19.90
2023-05-09T09:19:23.878Z,19.90
2023-05-09T09:21:55.092Z,19.90
2023-05-09T09:24:23.311Z,20.00
2023-05-09T09:26:51.587Z,20.00
2023-05-09T09:29:20.711Z,20.10
2023-05-09T09:31:53.469Z,20.10
2023-05-09T09:34:23.083Z,20.20
2023-05-09T09:36:50.550Z,20.20
2023-05-09T09:39:17.829Z,20.30
2023-05-09T09:41:45.221Z,20.40
2023-05-09T09:44:20.984Z,20.50
2023-05-09T09:46:53.840Z,20.50
2023-05-09T09:49:26.390Z,20.60
2023-05-09T09:51:58.453Z,20.60
2023-05-09T09:54:29.226Z,20.60
2023-05-09T09:56:57.174Z,20.60
2023-05-09T09:59:26.150Z,20.60
2023-05-09T10:02:07.403Z,20.60
2023-05-09T10:04:41.540Z,20.60
2023-05-09T10:07:13.806Z,20.60
2023-05-09T10:09:44.017Z,20.60
2023-05-09T10:12:12.216Z,20.60
2023-05-09T10:14:42.458Z,20.60
2023-05-09T10:17:13.591Z,20.60
2023-05-09T10:19:45.929Z,20.60
2023-05-09T10:22:16.599Z,20.60
2023-05-09T10:25:04.069Z,20.60
2023-05-09T10:27:36.138Z,20.60
2023-05-09T10:30:08.310Z,20.60
2023-05-09T10:32:57.992Z,20.60
2023-05-09T10:35:30.015Z,20.60
2023-05-09T10:37:58.010Z,20.60
2023-05-09T10:40:26.047Z,20.50
2023-05-09T10:42:53.159Z,20.50
2023-05-09T10:45:21.980Z,20.40
2023-05-09T10:47:51.278Z,20.40
2023-05-09T10:50:21.410Z,20.50
2023-05-09T10:53:11.595Z,20.50
2023-05-09T10:55:51.615Z,20.60
2023-05-09T10:58:37.580Z,20.60
2023-05-09T11:01:05.774Z,20.70
2023-05-09T11:04:08.743Z,20.80
2023-05-09T11:06:49.225Z,20.90
2023-05-09T11:09:41.654Z,21.00
2023-05-09T11:12:10.159Z,21.00
2023-05-09T11:14:48.913Z,21.10
2023-05-09T11:17:22.149Z,21.20
2023-05-09T11:19:49.338Z,21.20
2023-05-09T11:22:24.722Z,21.30
2023-05-09T11:24:54.213Z,21.40
2023-05-09T11:27:23.369Z,21.40
2023-05-09T11:29:52.696Z,21.50
2023-05-09T11:32:28.316Z,21.50
2023-05-09T11:35:16.393Z,21.50
2023-05-09T11:38:00.344Z,21.60
2023-05-09T11:40:29.021Z,21.60
2023-05-09T11:42:58.607Z,21.60
2023-05-09T11:45:31.680Z,21.60
2023-05-09T11:47:59.325Z,21.70
2023-05-09T11:50:26.781Z,21.70
2023-05-09T11:52:54.346Z,21.70
2023-05-09T11:55:23.004Z,21.80
2023-05-09T11:57:53.263Z,21.80
2023-05-09T12:00:22.891Z,21.80
2023-05-09T12:02:51.515Z,21.90
2023-05-09T12:05:23.336Z,21.90
2023-05-09T12:07:51.015Z,21.90
2023-05-09T12:10:25.577Z,21.80
2023-05-09T12:12:55.761Z,21.90
2023-05-09T12:15:23.444Z,21.80
2023-05-09T12:18:04.772Z,21.80
2023-05-09T12:20:50.457Z,21.80
2023-05-09T12:23:19.710Z,21.80
2023-05-09T12:25:54.104Z,21.80
2023-05-09T12:28:25.627Z,21.80
2023-05-09T12:30:53.619Z,21.90
2023-05-09T12:33:21.408Z,21.90
2023-05-09T12:36:09.636Z,21.90
2023-05-09T12:38:37.315Z,22.00
2023-05-09T12:41:22.496Z,22.00
2023-05-09T12:43:56.394Z,22.00
2023-05-09T12:46:23.702Z,22.10
2023-05-09T12:48:51.845Z,22.10
2023-05-09T12:51:22.357Z,22.10
2023-05-09T12:53:50.009Z,22.10
2023-05-09T12:56:19.816Z,22.20
2023-05-09T12:58:55.015Z,22.20
2023-05-09T13:01:27.508Z,22.20
2023-05-09T13:04:03.906Z,22.20
2023-05-09T13:06:31.339Z,22.30
2023-05-09T13:09:05.519Z,22.30
2023-05-09T13:11:32.702Z,22.30
2023-05-09T13:14:00.124Z,22.30
2023-05-09T13:16:27.747Z,22.30
2023-05-09T13:18:54.871Z,22.30
2023-05-09T13:21:22.057Z,22.30
2023-05-09T13:23:50.429Z,22.30
2023-05-09T13:26:17.634Z,22.30
2023-05-09T13:28:45.144Z,22.40
2023-05-09T13:31:12.321Z,22.40
2023-05-09T13:33:40.605Z,22.40
2023-05-09T13:36:07.887Z,22.40
2023-05-09T13:38:38.921Z,22.40
2023-05-09T13:41:07.508Z,22.40
2023-05-09T13:43:35.878Z,22.40
2023-05-09T13:46:03.557Z,22.40
2023-05-09T13:48:30.960Z,22.40
2023-05-09T13:51:00.553Z,22.40
2023-05-09T13:53:27.858Z,22.30
2023-05-09T13:55:55.225Z,22.30
2023-05-09T13:58:23.984Z,22.30
2023-05-09T14:00:51.734Z,22.30
2023-05-09T14:03:19.002Z,22.30
2023-05-09T14:05:46.438Z,22.20
2023-05-09T14:08:14.023Z,22.20
2023-05-09T14:10:41.252Z,22.20
2023-05-09T14:13:08.650Z,22.20
2023-05-09T14:15:36.094Z,22.20
2023-05-09T14:18:04.727Z,22.10
2023-05-09T14:20:34.559Z,22.10
2023-05-09T14:23:01.670Z,22.00
2023-05-09T14:25:29.474Z,22.00
2023-05-09T14:27:56.670Z,22.00
2023-05-09T14:30:26.277Z,21.90
2023-05-09T14:32:53.677Z,21.80
2023-05-09T14:35:22.097Z,21.80
2023-05-09T14:37:49.283Z,21.80
2023-05-09T14:40:16.900Z,21.70
2023-05-09T14:42:44.603Z,21.70
2023-05-09T14:45:12.913Z,21.60
2023-05-09T14:47:41.237Z,21.50
2023-05-09T14:50:15.892Z,21.50
2023-05-09T14:52:44.389Z,21.50
2023-05-09T14:55:11.656Z,21.40
2023-05-09T14:57:39.006Z,21.30
2023-05-09T15:00:20.277Z,21.30
2023-05-09T15:02:49.790Z,21.30
2023-05-09T15:05:17.358Z,21.20
2023-05-09T15:07:44.684Z,21.10
2023-05-09T15:10:11.960Z,21.00
2023-05-09T15:12:39.156Z,21.00
2023-05-09T15:15:26.236Z,20.90
2023-05-09T15:17:54.023Z,20.90
2023-05-09T15:20:21.211Z,20.80
2023-05-09T15:22:49.823Z,20.70
2023-05-09T15:25:17.279Z,20.70
2023-05-09T15:27:44.627Z,20.70
2023-05-09T15:30:12.245Z,20.70
2023-05-09T15:32:42.728Z,20.60
2023-05-09T15:35:10.067Z,20.60
2023-05-09T15:37:37.793Z,20.50
2023-05-09T15:40:05.389Z,20.50
2023-05-09T15:42:32.466Z,20.50
2023-05-09T15:44:59.585Z,20.50
2023-05-09T15:47:26.913Z,20.40
2023-05-09T15:49:54.056Z,20.40
2023-05-09T15:52:21.693Z,20.40
2023-05-09T15:54:48.859Z,20.40
2023-05-09T15:57:17.675Z,20.40
2023-05-09T15:59:44.775Z,20.40
2023-05-09T16:02:12.622Z,20.40
2023-05-09T16:04:39.851Z,20.40
2023-05-09T16:07:08.761Z,20.30
2023-05-09T16:09:37.423Z,20.40
2023-05-09T16:12:05.521Z,20.30
2023-05-09T16:14:32.765Z,20.30
2023-05-09T16:17:02.580Z,20.30
2023-05-09T16:19:29.919Z,20.20
2023-05-09T16:21:57.107Z,20.20
2023-05-09T16:24:24.809Z,20.20
2023-05-09T16:26:51.988Z,20.20
2023-05-09T16:29:19.156Z,20.20
2023-05-09T16:31:46.379Z,20.10
2023-05-09T16:34:13.571Z,20.10
2023-05-09T16:36:41.415Z,20.10
2023-05-09T16:39:08.835Z,20.10
2023-05-09T16:41:36.012Z,20.10
2023-05-09T16:44:03.509Z,20.00
2023-05-09T16:46:30.630Z,20.00
2023-05-09T16:48:57.850Z,20.00
2023-05-09T16:51:25.074Z,19.90
2023-05-09T16:53:52.230Z,19.90
2023-05-09T16:56:19.950Z,19.90
2023-05-09T16:58:49.448Z,19.80
2023-05-09T17:01:16.683Z,19.80
2023-05-09T17:03:43.979Z,19.80
2023-05-09T17:06:11.156Z,19.70
2023-05-09T17:08:38.785Z,19.70
2023-05-09T17:11:06.017Z,19.60
2023-05-09T17:13:33.100Z,19.60
2023-05-09T17:16:00.790Z,19.60
2023-05-09T17:18:36.996Z,19.50
2023-05-09T17:21:06.818Z,19.50
2023-05-09T17:23:35.308Z,19.40
2023-05-09T17:26:02.931Z,19.40
2023-05-09T17:28:30.245Z,19.40
2023-05-09T17:30:59.166Z,19.40
2023-05-09T17:33:27.223Z,19.40
2023-05-09T17:35:54.728Z,19.30
2023-05-09T17:38:22.317Z,19.30
2023-05-09T17:40:49.462Z,19.30
2023-05-09T17:43:17.929Z,19.20
2023-05-09T17:45:46.419Z,19.20
2023-05-09T17:48:14.460Z,19.20
2023-05-09T17:50:42.275Z,19.10
2023-05-09T17:53:10.070Z,19.10
2023-05-09T17:55:37.304Z,19.10
2023-05-09T17:58:04.558Z,19.00
2023-05-09T18:00:31.855Z,19.10
2023-05-09T18:03:00.865Z,19.00
2023-05-09T18:05:28.380Z,19.00
2023-05-09T18:07:56.862Z,19.00
2023-05-09T18:10:24.008Z,18.90
2023-05-09T18:12:51.342Z,19.00
2023-05-09T18:15:19.160Z,18.90
2023-05-09T18:17:48.582Z,18.90
2023-05-09T18:20:16.351Z,18.90
2023-05-09T18:22:43.730Z,18.90
2023-05-09T18:25:11.101Z,18.90
2023-05-09T18:27:38.496Z,18.90
2023-05-09T18:30:06.878Z,18.80
2023-05-09T18:32:34.071Z,18.80
2023-05-09T18:35:01.215Z,18.80
2023-05-09T18:37:28.452Z,18.90
2023-05-09T18:39:55.758Z,18.80
2023-05-09T18:42:23.165Z,18.80
2023-05-09T18:44:50.528Z,18.80
2023-05-09T18:47:18.290Z,18.80
2023-05-09T18:49:45.562Z,18.80
2023-05-09T18:52:13.545Z,18.80
2023-05-09T18:54:41.349Z,18.80
2023-05-09T18:57:08.707Z,18.80
2023-05-09T18:59:36.021Z,18.80
2023-05-09T19:02:03.196Z,18.80
2023-05-09T19:04:30.597Z,18.70
2023-05-09T19:06:59.549Z,18.70
2023-05-09T19:09:26.866Z,18.70
2023-05-09T19:11:54.214Z,18.70
2023-05-09T19:14:21.418Z,18.70
2023-05-09T19:16:49.641Z,18.70
2023-05-09T19:19:17.125Z,18.70
2023-05-09T19:21:44.364Z,18.60
2023-05-09T19:24:11.526Z,18.60
2023-05-09T19:26:38.652Z,18.60
2023-05-09T19:29:08.348Z,18.60
2023-05-09T19:31:37.222Z,18.60
2023-05-09T19:34:04.442Z,18.60
2023-05-09T19:36:32.006Z,18.60
2023-05-09T19:38:59.329Z,18.50
2023-05-09T19:41:26.628Z,18.50
2023-05-09T19:43:53.892Z,18.50
2023-05-09T19:46:22.440Z,18.50
2023-05-09T19:48:49.675Z,18.50
2023-05-09T19:51:16.902Z,18.50
2023-05-09T19:53:44.077Z,18.40
2023-05-09T19:56:12.801Z,18.40
2023-05-09T19:58:40.120Z,18.40
2023-05-09T20:01:07.449Z,18.40
2023-05-09T20:03:38.813Z,18.40
2023-05-09T20:06:07.886Z,18.40
2023-05-09T20:08:35.751Z,18.40
2023-05-09T20:11:03.337Z,18.30
2023-05-09T20:13:30.655Z,18.30
2023-05-09T20:15:59.240Z,18.30
2023-05-09T20:18:27.032Z,18.30
2023-05-09T20:20:54.934Z,18.30
2023-05-09T20:23:22.510Z,18.30
2023-05-09T20:25:49.733Z,18.20
2023-05-09T20:28:20.331Z,18.20
2023-05-09T20:30:47.600Z,18.20
2023-05-09T20:33:15.297Z,18.20
2023-05-09T20:35:45.288Z,18.20
2023-05-09T20:38:12.685Z,18.20
2023-05-09T20:40:41.235Z,18.10
2023-05-09T20:43:09.051Z,18.10
2023-05-09T20:45:37.520Z,18.10
2023-05-09T20:48:06.741Z,18.10
2023-05-09T20:50:34.033Z,18.10
2023-05-09T20:53:01.380Z,18.10
2023-05-09T20:55:28.634Z,18.10
2023-05-09T20:57:55.843Z,18.10
2023-05-09T21:00:23.055Z,18.10
2023-05-09T21:02:50.892Z,18.00
2023-05-09T21:05:18.183Z,18.00
2023-05-09T21:07:45.400Z,18.10
2023-05-09T21:10:12.753Z,18.00
2023-05-09T21:12:39.937Z,18.00
2023-05-09T21:15:07.731Z,18.00
2023-05-09T21:17:35.009Z,18.00
2023-05-09T21:20:02.546Z,18.00
2023-05-09T21:22:29.793Z,18.00
2023-05-09T21:24:56.990Z,18.00
2023-05-09T21:27:24.288Z,18.00
2023-05-09T21:29:51.525Z,17.90
2023-05-09T21:32:18.788Z,17.90
2023-05-09T21:34:48.178Z,17.90
2023-05-09T21:37:15.771Z,17.90
2023-05-09T21:39:42.999Z,17.90
2023-05-09T21:42:10.167Z,17.90
2023-05-09T21:44:37.318Z,17.90
2023-05-09T21:47:04.849Z,17.90
2023-05-09T21:49:32.147Z,17.90
2023-05-09T21:51:59.547Z,17.90
2023-05-09T21:54:26.775Z,17.90
2023-05-09T21:56:54.470Z,17.90
2023-05-09T21:59:22.557Z,17.90
2023-05-09T22:01:49.829Z,17.80
2023-05-09T22:04:16.971Z,17.90
2023-05-09T22:06:44.119Z,17.90
2023-05-09T22:09:11.315Z,17.80
2023-05-09T22:11:38.544Z,17.80
2023-05-09T22:14:06.915Z,17.80
2023-05-09T22:16:34.148Z,17.80
2023-05-09T22:19:01.337Z,17.80
2023-05-09T22:21:28.871Z,17.80
2023-05-09T22:23:57.338Z,17.80
2023-05-09T22:26:24.497Z,17.80
2023-05-09T22:28:51.785Z,17.80
2023-05-09T22:31:19.049Z,17.80
2023-05-09T22:33:46.263Z,17.80
2023-05-09T22:36:14.537Z,17.70
2023-05-09T22:38:41.727Z,17.70
2023-05-09T22:41:09.217Z,17.80
2023-05-09T22:43:39.107Z,17.70
2023-05-09T22:46:07.222Z,17.80
2023-05-09T22:48:34.622Z,17.70
2023-05-09T22:51:02.251Z,17.70
2023-05-09T22:53:29.575Z,17.70
2023-05-09T22:55:56.762Z,17.70
2023-05-09T22:58:23.963Z,17.70
2023-05-09T23:00:51.229Z,17.70
2023-05-09T23:03:18.465Z,17.70
2023-05-09T23:05:45.769Z,17.70
2023-05-09T23:08:12.926Z,17.70
2023-05-09T23:10:40.057Z,17.60
2023-05-09T23:13:07.909Z,17.70
2023-05-09T23:15:35.484Z,17.70
2023-05-09T23:18:03.252Z,17.60
2023-05-09T23:20:30.539Z,17.60
2023-05-09T23:22:57.741Z,17.60
2023-05-09T23:25:24.895Z,17.60
2023-05-09T23:27:52.047Z,17.60
2023-05-09T23:30:19.102Z,17.60
2023-05-09T23:32:46.498Z,17.60
2023-05-09T23:35:13.681Z,17.60
2023-05-09T23:37:40.938Z,17.60
2023-05-09T23:40:08.657Z,17.60
2023-05-09T23:42:35.812Z,17.50
2023-05-09T23:45:03.080Z,17.50
2023-05-09T23:47:30.570Z,17.50
2023-05-09T23:49:58.102Z,17.50
2023-05-09T23:52:25.234Z,17.50
2023-05-09T23:54:52.409Z,17.40
2023-05-09T23:57:19.725Z,17.30
2023-05-09T23:59:46.829Z,17.30
